createdAt,value
2019-01-10T00:00:08.818Z,973.03
2019-01-10T00:01:08.802Z,973.07
2019-01-10T00:02:08.785Z,973.05
2019-01-10T00:03:08.769Z,973.05
2019-01-10T00:04:08.751Z,973.05
2019-01-10T00:05:08.735Z,973.09
2019-01-10T00:06:08.715Z,973.09
2019-01-10T00:07:08.700Z,973.08
2019-01-10T00:08:08.682Z,973.07
2019-01-10T00:09:08.666Z,973.09
2019-01-10T00:10:08.649Z,973.11
2019-01-10T00:11:08.633Z,973.14
2019-01-10T00:12:08.615Z,973.09
2019-01-10T00:13:08.600Z,973.16
2019-01-10T00:14:08.580Z,973.14
2019-01-10T00:15:08.563Z,973.16
2019-01-10T00:16:08.546Z,973.18
2019-01-10T00:17:08.529Z,973.20
2019-01-10T00:18:08.513Z,973.20
2019-01-10T00:19:08.496Z,973.15
2019-01-10T00:20:08.478Z,973.13
2019-01-10T00:21:08.461Z,973.16
2019-01-10T00:22:08.444Z,973.17
2019-01-10T00:23:08.426Z,973.12
2019-01-10T00:24:08.412Z,973.18
2019-01-10T00:25:08.394Z,973.15
2019-01-10T00:26:08.377Z,973.16
2019-01-10T00:27:08.360Z,973.12
2019-01-10T00:28:08.341Z,973.13
2019-01-10T00:29:08.323Z,973.11
2019-01-10T00:30:08.307Z,973.12
2019-01-10T00:31:08.291Z,973.15
2019-01-10T00:32:08.273Z,973.15
2019-01-10T00:33:08.255Z,973.15
2019-01-10T00:34:08.239Z,973.18
2019-01-10T00:35:08.222Z,973.19
2019-01-10T00:36:08.205Z,973.18
2019-01-10T00:37:08.188Z,973.17
2019-01-10T00:38:08.171Z,973.13
2019-01-10T00:39:08.153Z,973.18
2019-01-10T00:40:08.144Z,973.18
2019-01-10T00:41:08.119Z,973.17
2019-01-10T00:42:08.101Z,973.19
2019-01-10T00:43:08.086Z,973.18
2019-01-10T00:44:08.069Z,973.17
2019-01-10T00:45:08.049Z,973.17
2019-01-10T00:46:08.033Z,973.20
2019-01-10T00:47:08.016Z,973.18
2019-01-10T00:48:07.998Z,973.20
2019-01-10T00:49:07.982Z,973.19
2019-01-10T00:50:07.963Z,973.22
2019-01-10T00:51:07.950Z,973.20
2019-01-10T00:52:07.929Z,973.25
2019-01-10T00:53:07.913Z,973.28
2019-01-10T00:54:07.895Z,973.29
2019-01-10T00:55:07.883Z,973.31
2019-01-10T00:56:07.862Z,973.30
2019-01-10T00:57:07.843Z,973.31
2019-01-10T00:58:07.829Z,973.30
2019-01-10T00:59:07.808Z,973.26
2019-01-10T01:00:07.791Z,973.30
2019-01-10T01:01:07.775Z,973.28
2019-01-10T01:02:07.757Z,973.31
2019-01-10T01:03:07.741Z,973.33
2019-01-10T01:04:07.723Z,973.29
2019-01-10T01:05:07.703Z,973.32
2019-01-10T01:06:07.689Z,973.28
2019-01-10T01:07:07.669Z,973.27
2019-01-10T01:08:07.654Z,973.28
2019-01-10T01:09:07.636Z,973.32
2019-01-10T01:10:07.622Z,973.27
2019-01-10T01:11:07.600Z,973.32
2019-01-10T01:12:07.585Z,973.32
2019-01-10T01:13:07.567Z,973.33
2019-01-10T01:14:07.547Z,973.34
2019-01-10T01:15:07.532Z,973.35
2019-01-10T01:16:07.515Z,973.41
2019-01-10T01:17:07.495Z,973.43
2019-01-10T01:18:07.478Z,973.37
2019-01-10T01:19:07.462Z,973.43
2019-01-10T01:20:07.526Z,973.41
2019-01-10T01:21:07.426Z,973.40
2019-01-10T01:22:07.408Z,973.42
2019-01-10T01:23:07.391Z,973.41
2019-01-10T01:24:07.375Z,973.43
2019-01-10T01:25:07.359Z,973.44
2019-01-10T01:26:07.340Z,973.45
2019-01-10T01:27:07.333Z,973.46
2019-01-10T01:28:07.308Z,973.51
2019-01-10T01:29:07.287Z,973.51
2019-01-10T01:30:07.273Z,973.50
2019-01-10T01:31:07.253Z,973.52
2019-01-10T01:32:07.236Z,973.57
2019-01-10T01:33:07.218Z,973.53
2019-01-10T01:34:07.203Z,973.57
2019-01-10T01:35:07.184Z,973.60
2019-01-10T01:36:07.168Z,973.59
2019-01-10T01:37:07.148Z,973.60
2019-01-10T01:38:07.131Z,973.67
2019-01-10T01:39:07.115Z,973.66
2019-01-10T01:40:07.097Z,973.68
2019-01-10T01:41:07.083Z,973.68
2019-01-10T01:42:07.064Z,973.68
2019-01-10T01:43:07.757Z,973.70
2019-01-10T01:44:07.030Z,973.73
2019-01-10T01:45:07.010Z,973.71
2019-01-10T01:46:07.813Z,973.72
2019-01-10T01:47:06.977Z,973.77
2019-01-10T01:48:06.965Z,973.76
2019-01-10T01:49:06.942Z,973.80
2019-01-10T01:50:06.924Z,973.79
2019-01-10T01:51:06.909Z,973.81
2019-01-10T01:52:06.892Z,973.86
2019-01-10T01:53:06.875Z,973.86
2019-01-10T01:54:06.857Z,973.86
2019-01-10T01:55:06.840Z,973.85
2019-01-10T01:56:06.824Z,973.87
2019-01-10T01:57:06.805Z,973.84
2019-01-10T01:58:06.789Z,973.85
2019-01-10T01:59:06.770Z,973.90
2019-01-10T02:00:06.756Z,973.88
2019-01-10T02:01:06.736Z,973.89
2019-01-10T02:02:06.719Z,973.88
2019-01-10T02:03:06.701Z,973.92
2019-01-10T02:04:06.685Z,973.95
2019-01-10T02:05:06.667Z,973.94
2019-01-10T02:06:06.650Z,973.97
2019-01-10T02:07:06.631Z,974.02
2019-01-10T02:08:06.615Z,974.04
2019-01-10T02:09:06.597Z,974.07
2019-01-10T02:10:06.580Z,974.06
2019-01-10T02:11:06.566Z,974.02
2019-01-10T02:12:06.548Z,974.03
2019-01-10T02:13:06.528Z,974.04
2019-01-10T02:14:06.511Z,974.02
2019-01-10T02:15:06.492Z,974.05
2019-01-10T02:16:06.477Z,974.06
2019-01-10T02:17:06.458Z,974.09
2019-01-10T02:18:06.442Z,974.09
2019-01-10T02:19:06.427Z,974.07
2019-01-10T02:20:06.406Z,974.14
2019-01-10T02:21:06.390Z,974.14
2019-01-10T02:22:06.372Z,974.20
2019-01-10T02:23:06.356Z,974.22
2019-01-10T02:24:06.339Z,974.22
2019-01-10T02:25:06.322Z,974.23
2019-01-10T02:26:06.303Z,974.26
2019-01-10T02:27:06.288Z,974.25
2019-01-10T02:28:06.269Z,974.23
2019-01-10T02:29:06.253Z,974.25
2019-01-10T02:30:06.237Z,974.23
2019-01-10T02:31:06.217Z,974.27
2019-01-10T02:32:06.202Z,974.25
2019-01-10T02:33:06.184Z,974.27
2019-01-10T02:34:06.169Z,974.26
2019-01-10T02:35:06.151Z,974.29
2019-01-10T02:36:06.135Z,974.33
2019-01-10T02:37:06.116Z,974.34
2019-01-10T02:38:06.103Z,974.33
2019-01-10T02:39:06.082Z,974.34
2019-01-10T02:40:06.064Z,974.37
2019-01-10T02:41:06.047Z,974.35
2019-01-10T02:42:06.031Z,974.36
2019-01-10T02:43:06.014Z,974.38
2019-01-10T02:44:06.073Z,974.39
2019-01-10T02:45:05.976Z,974.40
2019-01-10T02:46:05.961Z,974.39
2019-01-10T02:47:05.946Z,974.40
2019-01-10T02:48:05.927Z,974.42
2019-01-10T02:49:05.912Z,974.39
2019-01-10T02:50:05.893Z,974.41
2019-01-10T02:51:05.877Z,974.37
2019-01-10T02:52:05.858Z,974.40
2019-01-10T02:53:05.839Z,974.39
2019-01-10T02:54:05.827Z,974.41
2019-01-10T02:55:05.811Z,974.43
2019-01-10T02:56:05.791Z,974.42
2019-01-10T02:57:05.772Z,974.41
2019-01-10T02:58:05.756Z,974.44
2019-01-10T02:59:05.740Z,974.40
2019-01-10T03:00:05.720Z,974.41
2019-01-10T03:01:05.704Z,974.45
2019-01-10T03:02:05.685Z,974.42
2019-01-10T03:03:05.669Z,974.42
2019-01-10T03:04:05.653Z,974.45
2019-01-10T03:05:05.635Z,974.40
2019-01-10T03:06:05.616Z,974.39
2019-01-10T03:07:05.599Z,974.40
2019-01-10T03:08:05.583Z,974.39
2019-01-10T03:09:05.565Z,974.38
2019-01-10T03:10:05.706Z,974.39
2019-01-10T03:11:05.534Z,974.38
2019-01-10T03:12:05.515Z,974.34
2019-01-10T03:13:05.497Z,974.39
2019-01-10T03:14:05.480Z,974.38
2019-01-10T03:15:05.465Z,974.38
2019-01-10T03:16:05.447Z,974.39
2019-01-10T03:17:05.428Z,974.41
2019-01-10T03:18:05.412Z,974.40
2019-01-10T03:19:05.395Z,974.39
2019-01-10T03:20:05.379Z,974.38
2019-01-10T03:21:05.361Z,974.36
2019-01-10T03:22:05.349Z,974.38
2019-01-10T03:23:05.326Z,974.40
2019-01-10T03:24:05.311Z,974.34
2019-01-10T03:25:05.296Z,974.34
2019-01-10T03:26:05.274Z,974.32
2019-01-10T03:27:05.260Z,974.31
2019-01-10T03:28:05.250Z,974.28
2019-01-10T03:29:05.222Z,974.30
2019-01-10T03:30:05.213Z,974.30
2019-01-10T03:31:05.205Z,974.28
2019-01-10T03:32:05.181Z,974.30
2019-01-10T03:33:05.178Z,974.29
2019-01-10T03:34:05.136Z,974.25
2019-01-10T03:35:05.121Z,974.26
2019-01-10T03:36:05.104Z,974.26
2019-01-10T03:37:05.086Z,974.20
2019-01-10T03:38:05.068Z,974.20
2019-01-10T03:39:05.052Z,974.21
2019-01-10T03:40:05.035Z,974.20
2019-01-10T03:41:05.020Z,974.22
2019-01-10T03:42:05.001Z,974.20
2019-01-10T03:43:05.112Z,974.21
2019-01-10T03:44:04.968Z,974.17
2019-01-10T03:45:04.947Z,974.19
2019-01-10T03:46:04.941Z,974.17
2019-01-10T03:47:04.915Z,974.19
2019-01-10T03:48:04.897Z,974.19
2019-01-10T03:49:04.881Z,974.22
2019-01-10T03:50:04.863Z,974.22
2019-01-10T03:51:04.846Z,974.29
2019-01-10T03:52:04.830Z,974.31
2019-01-10T03:53:04.809Z,974.35
2019-01-10T03:54:04.794Z,974.37
2019-01-10T03:55:04.776Z,974.37
2019-01-10T03:56:04.762Z,974.37
2019-01-10T03:57:04.743Z,974.35
2019-01-10T03:58:04.723Z,974.34
2019-01-10T03:59:04.709Z,974.38
2019-01-10T04:00:04.694Z,974.34
2019-01-10T04:01:04.679Z,974.36
2019-01-10T04:02:04.680Z,974.37
2019-01-10T04:03:04.647Z,974.32
2019-01-10T04:04:04.622Z,974.35
2019-01-10T04:05:04.604Z,974.35
2019-01-10T04:06:04.586Z,974.35
2019-01-10T04:07:04.568Z,974.37
2019-01-10T04:08:04.555Z,974.38
2019-01-10T04:09:04.536Z,974.39
2019-01-10T04:10:04.518Z,974.42
2019-01-10T04:11:04.502Z,974.40
2019-01-10T04:12:04.491Z,974.44
2019-01-10T04:13:04.465Z,974.38
2019-01-10T04:14:04.450Z,974.43
2019-01-10T04:15:04.434Z,974.39
2019-01-10T04:16:04.413Z,974.42
2019-01-10T04:17:04.409Z,974.43
2019-01-10T04:18:04.380Z,974.44
2019-01-10T04:19:04.361Z,974.44
2019-01-10T04:20:04.346Z,974.44
2019-01-10T04:21:04.333Z,974.47
2019-01-10T04:22:04.311Z,974.42
2019-01-10T04:23:04.292Z,974.40
2019-01-10T04:24:04.276Z,974.39
2019-01-10T04:25:04.260Z,974.39
2019-01-10T04:26:04.243Z,974.41
2019-01-10T04:27:04.226Z,974.40
2019-01-10T04:28:04.215Z,974.39
2019-01-10T04:29:04.190Z,974.37
2019-01-10T04:30:04.171Z,974.34
2019-01-10T04:31:04.156Z,974.37
2019-01-10T04:32:04.139Z,974.36
2019-01-10T04:33:04.119Z,974.36
2019-01-10T04:34:04.103Z,974.36
2019-01-10T04:35:04.089Z,974.31
2019-01-10T04:36:04.068Z,974.38
2019-01-10T04:37:04.052Z,974.37
2019-01-10T04:38:04.036Z,974.42
2019-01-10T04:39:04.017Z,974.42
2019-01-10T04:40:04.001Z,974.43
2019-01-10T04:41:03.983Z,974.42
2019-01-10T04:42:03.964Z,974.39
2019-01-10T04:43:03.950Z,974.41
2019-01-10T04:44:07.172Z,974.43
2019-01-10T04:45:03.914Z,974.41
2019-01-10T04:46:03.896Z,974.42
2019-01-10T04:47:03.879Z,974.38
2019-01-10T04:48:03.860Z,974.40
2019-01-10T04:49:03.843Z,974.40
2019-01-10T04:50:03.825Z,974.41
2019-01-10T04:51:03.809Z,974.36
2019-01-10T04:52:03.796Z,974.34
2019-01-10T04:53:03.772Z,974.32
2019-01-10T04:54:03.755Z,974.38
2019-01-10T04:55:03.739Z,974.47
2019-01-10T04:56:03.722Z,974.43
2019-01-10T04:57:03.703Z,974.48
2019-01-10T04:58:03.688Z,974.48
2019-01-10T04:59:03.669Z,974.52
2019-01-10T05:00:03.650Z,974.54
2019-01-10T05:01:03.634Z,974.59
2019-01-10T05:02:03.615Z,974.57
2019-01-10T05:03:03.599Z,974.54
2019-01-10T05:04:03.583Z,974.52
2019-01-10T05:05:03.565Z,974.56
2019-01-10T05:06:03.548Z,974.57
2019-01-10T05:07:03.531Z,974.57
2019-01-10T05:08:03.516Z,974.59
2019-01-10T05:09:03.495Z,974.55
2019-01-10T05:10:03.480Z,974.61
2019-01-10T05:11:03.460Z,974.60
2019-01-10T05:12:03.444Z,974.61
2019-01-10T05:13:03.425Z,974.61
2019-01-10T05:14:03.408Z,974.60
2019-01-10T05:15:03.393Z,974.61
2019-01-10T05:16:03.373Z,974.59
2019-01-10T05:17:03.356Z,974.57
2019-01-10T05:18:03.340Z,974.57
2019-01-10T05:19:03.321Z,974.57
2019-01-10T05:20:03.307Z,974.57
2019-01-10T05:21:03.286Z,974.57
2019-01-10T05:22:03.272Z,974.61
2019-01-10T05:23:03.253Z,974.60
2019-01-10T05:24:03.236Z,974.63
2019-01-10T05:25:03.217Z,974.61
2019-01-10T05:26:03.200Z,974.60
2019-01-10T05:27:03.183Z,974.61
2019-01-10T05:28:03.164Z,974.58
2019-01-10T05:29:03.146Z,974.59
2019-01-10T05:30:03.130Z,974.60
2019-01-10T05:31:03.113Z,974.62
2019-01-10T05:32:03.096Z,974.59
2019-01-10T05:33:03.075Z,974.66
2019-01-10T05:34:03.058Z,974.67
2019-01-10T05:35:03.043Z,974.73
2019-01-10T05:36:03.026Z,974.74
2019-01-10T05:37:03.006Z,974.71
2019-01-10T05:38:02.991Z,974.72
2019-01-10T05:39:02.973Z,974.72
2019-01-10T05:40:02.957Z,974.74
2019-01-10T05:41:02.937Z,974.77
2019-01-10T05:42:02.920Z,974.74
2019-01-10T05:43:02.901Z,974.80
2019-01-10T05:44:02.884Z,974.79
2019-01-10T05:45:02.870Z,974.80
2019-01-10T05:46:02.853Z,974.77
2019-01-10T05:47:02.835Z,974.80
2019-01-10T05:48:02.822Z,974.77
2019-01-10T05:49:02.798Z,974.78
2019-01-10T05:50:02.783Z,974.82
2019-01-10T05:51:02.765Z,974.87
2019-01-10T05:52:02.755Z,974.83
2019-01-10T05:53:02.730Z,974.84
2019-01-10T05:54:02.712Z,974.83
2019-01-10T05:55:02.696Z,974.88
2019-01-10T05:56:02.679Z,974.88
2019-01-10T05:57:02.659Z,974.83
2019-01-10T05:58:02.644Z,974.84
2019-01-10T05:59:02.626Z,974.84
2019-01-10T06:00:02.651Z,974.87
2019-01-10T06:01:02.589Z,974.90
2019-01-10T06:02:02.573Z,974.91
2019-01-10T06:03:02.555Z,974.93
2019-01-10T06:04:02.538Z,974.93
2019-01-10T06:05:02.520Z,974.92
2019-01-10T06:06:02.504Z,974.95
2019-01-10T06:07:02.486Z,974.96
2019-01-10T06:08:02.469Z,974.96
2019-01-10T06:09:02.450Z,974.99
2019-01-10T06:10:02.433Z,974.98
2019-01-10T06:11:02.416Z,974.98
2019-01-10T06:12:02.403Z,975.04
2019-01-10T06:13:02.382Z,975.03
2019-01-10T06:14:02.365Z,975.04
2019-01-10T06:15:02.346Z,975.07
2019-01-10T06:16:02.329Z,975.07
2019-01-10T06:17:02.311Z,975.09
2019-01-10T06:18:02.300Z,975.13
2019-01-10T06:19:02.278Z,975.07
2019-01-10T06:20:02.260Z,975.09
2019-01-10T06:21:02.243Z,975.14
2019-01-10T06:22:02.225Z,975.12
2019-01-10T06:23:02.212Z,975.14
2019-01-10T06:24:02.193Z,975.11
2019-01-10T06:25:02.198Z,975.11
2019-01-10T06:26:02.158Z,975.13
2019-01-10T06:27:02.139Z,975.22
2019-01-10T06:28:02.124Z,975.21
2019-01-10T06:29:02.103Z,975.25
2019-01-10T06:30:02.084Z,975.25
2019-01-10T06:31:02.069Z,975.26
2019-01-10T06:32:02.050Z,975.26
2019-01-10T06:33:02.032Z,975.27
2019-01-10T06:34:02.016Z,975.29
2019-01-10T06:35:02.000Z,975.26
2019-01-10T06:36:01.989Z,975.27
2019-01-10T06:37:01.962Z,975.26
2019-01-10T06:38:01.947Z,975.26
2019-01-10T06:39:01.928Z,975.32
2019-01-10T06:40:01.918Z,975.33
2019-01-10T06:41:01.892Z,975.30
2019-01-10T06:42:01.874Z,975.34
2019-01-10T06:43:01.858Z,975.34
2019-01-10T06:44:01.842Z,975.36
2019-01-10T06:45:01.821Z,975.36
2019-01-10T06:46:01.803Z,975.37
2019-01-10T06:47:01.788Z,975.36
2019-01-10T06:48:01.771Z,975.42
2019-01-10T06:49:01.752Z,975.36
2019-01-10T06:50:01.733Z,975.38
2019-01-10T06:51:01.718Z,975.41
2019-01-10T06:52:01.701Z,975.42
2019-01-10T06:53:01.682Z,975.40
2019-01-10T06:54:01.665Z,975.46
2019-01-10T06:55:01.647Z,975.45
2019-01-10T06:56:01.630Z,975.45
2019-01-10T06:57:01.613Z,975.42
2019-01-10T06:58:01.596Z,975.44
2019-01-10T06:59:01.577Z,975.44
2019-01-10T07:00:01.561Z,975.46
2019-01-10T07:01:01.544Z,975.46
2019-01-10T07:02:01.524Z,975.51
2019-01-10T07:03:01.509Z,975.48
2019-01-10T07:04:01.490Z,975.50
2019-01-10T07:05:01.471Z,975.48
2019-01-10T07:06:01.456Z,975.52
2019-01-10T07:07:01.439Z,975.53
2019-01-10T07:08:01.422Z,975.55
2019-01-10T07:09:01.402Z,975.51
2019-01-10T07:10:01.386Z,975.58
2019-01-10T07:11:01.369Z,975.60
2019-01-10T07:12:01.351Z,975.64
2019-01-10T07:13:01.332Z,975.70
2019-01-10T07:14:01.317Z,975.69
2019-01-10T07:15:01.299Z,975.66
2019-01-10T07:16:01.283Z,975.71
2019-01-10T07:17:01.264Z,975.74
2019-01-10T07:18:01.250Z,975.67
2019-01-10T07:19:01.230Z,975.69
2019-01-10T07:20:01.212Z,975.74
2019-01-10T07:21:01.196Z,975.76
2019-01-10T07:22:01.178Z,975.78
2019-01-10T07:23:01.161Z,975.80
2019-01-10T07:24:01.143Z,975.80
2019-01-10T07:25:01.126Z,975.79
2019-01-10T07:26:01.189Z,975.81
2019-01-10T07:27:01.091Z,975.83
2019-01-10T07:28:01.074Z,975.83
2019-01-10T07:29:01.056Z,975.83
2019-01-10T07:30:01.038Z,975.85
2019-01-10T07:31:01.023Z,975.86
2019-01-10T07:32:01.006Z,975.84
2019-01-10T07:33:00.987Z,975.88
2019-01-10T07:34:00.970Z,975.87
2019-01-10T07:35:00.955Z,975.86
2019-01-10T07:36:00.935Z,975.84
2019-01-10T07:37:00.917Z,975.86
2019-01-10T07:38:00.906Z,975.86
2019-01-10T07:39:00.883Z,975.86
2019-01-10T07:40:00.866Z,975.86
2019-01-10T07:41:00.847Z,975.88
2019-01-10T07:42:00.832Z,975.88
2019-01-10T07:43:00.813Z,975.83
2019-01-10T07:44:00.797Z,975.88
2019-01-10T07:45:02.880Z,975.86
2019-01-10T07:46:00.763Z,975.87
2019-01-10T07:47:00.747Z,975.95
2019-01-10T07:48:00.731Z,975.95
2019-01-10T07:49:00.710Z,975.91
2019-01-10T07:50:00.693Z,975.91
2019-01-10T07:51:00.678Z,975.92
2019-01-10T07:52:00.662Z,975.93
2019-01-10T07:53:00.642Z,975.96
2019-01-10T07:54:00.626Z,975.99
2019-01-10T07:55:00.607Z,976.01
2019-01-10T07:56:00.589Z,976.02
2019-01-10T07:57:00.571Z,976.02
2019-01-10T07:58:00.556Z,976.03
2019-01-10T07:59:00.539Z,976.02
2019-01-10T08:00:00.574Z,976.02
2019-01-10T08:01:00.509Z,975.98
2019-01-10T08:02:00.485Z,976.02
2019-01-10T08:03:00.472Z,976.02
2019-01-10T08:04:00.455Z,976.02
2019-01-10T08:05:00.433Z,976.02
2019-01-10T08:06:00.416Z,976.11
2019-01-10T08:07:00.399Z,976.12
2019-01-10T08:08:00.383Z,976.16
2019-01-10T08:09:00.363Z,976.16
2019-01-10T08:10:00.348Z,976.15
2019-01-10T08:11:00.331Z,976.18
2019-01-10T08:12:00.885Z,976.18
2019-01-10T08:13:00.297Z,976.16
2019-01-10T08:14:00.278Z,976.18
2019-01-10T08:15:00.302Z,976.20
2019-01-10T08:16:00.246Z,976.21
2019-01-10T08:17:00.227Z,976.22
2019-01-10T08:18:00.213Z,976.25
2019-01-10T08:19:00.194Z,976.25
2019-01-10T08:20:00.199Z,976.26
2019-01-10T08:21:00.160Z,976.31
2019-01-10T08:22:00.142Z,976.28
2019-01-10T08:23:00.124Z,976.31
2019-01-10T08:24:00.106Z,976.30
2019-01-10T08:25:00.161Z,976.31
2019-01-10T08:26:00.073Z,976.35
2019-01-10T08:27:00.054Z,976.35
2019-01-10T08:28:00.038Z,976.32
2019-01-10T08:29:00.021Z,976.33
2019-01-10T08:30:00.001Z,976.41
2019-01-10T08:30:59.986Z,976.39
2019-01-10T08:31:59.968Z,976.40
2019-01-10T08:33:00.033Z,976.44
2019-01-10T08:33:59.932Z,976.46
2019-01-10T08:34:59.915Z,976.46
2019-01-10T08:35:59.896Z,976.53
2019-01-10T08:36:59.881Z,976.50
2019-01-10T08:37:59.864Z,976.50
2019-01-10T08:38:59.845Z,976.50
2019-01-10T08:39:59.830Z,976.58
2019-01-10T08:40:59.812Z,976.54
2019-01-10T08:41:59.793Z,976.54
2019-01-10T08:42:59.776Z,976.56
2019-01-10T08:43:59.761Z,976.58
2019-01-10T08:44:59.744Z,976.58
2019-01-10T08:45:59.723Z,976.58
2019-01-10T08:46:59.706Z,976.58
2019-01-10T08:47:59.688Z,976.59
2019-01-10T08:48:59.672Z,976.57
2019-01-10T08:49:59.655Z,976.55
2019-01-10T08:50:59.635Z,976.62
2019-01-10T08:51:59.621Z,976.61
2019-01-10T08:52:59.602Z,976.62
2019-01-10T08:53:59.585Z,976.64
2019-01-10T08:54:59.567Z,976.62
2019-01-10T08:55:59.552Z,976.61
2019-01-10T08:56:59.534Z,976.59
2019-01-10T08:57:59.518Z,976.58
2019-01-10T08:58:59.501Z,976.61
2019-01-10T08:59:59.484Z,976.56
2019-01-10T09:00:59.467Z,976.61
2019-01-10T09:01:59.449Z,976.58
2019-01-10T09:02:59.428Z,976.59
2019-01-10T09:03:59.414Z,976.57
2019-01-10T09:04:59.394Z,976.62
2019-01-10T09:06:07.880Z,976.60
2019-01-10T09:06:59.366Z,976.57
2019-01-10T09:07:59.346Z,976.63
2019-01-10T09:09:01.119Z,976.62
2019-01-10T09:09:59.310Z,976.61
2019-01-10T09:10:59.296Z,976.64
2019-01-10T09:11:59.277Z,976.65
2019-01-10T09:12:59.260Z,976.63
2019-01-10T09:13:59.241Z,976.65
2019-01-10T09:14:59.225Z,976.65
2019-01-10T09:15:59.207Z,976.67
2019-01-10T09:16:59.188Z,976.65
2019-01-10T09:17:59.171Z,976.68
2019-01-10T09:18:59.156Z,976.72
2019-01-10T09:19:59.139Z,976.74
2019-01-10T09:21:04.216Z,976.74
2019-01-10T09:21:59.110Z,976.76
2019-01-10T09:22:59.094Z,976.75
2019-01-10T09:23:59.070Z,976.76
2019-01-10T09:24:59.052Z,976.74
2019-01-10T09:25:59.034Z,976.77
2019-01-10T09:26:59.017Z,976.77
2019-01-10T09:27:59.001Z,976.74
2019-01-10T09:28:58.983Z,976.75
2019-01-10T09:29:58.970Z,976.74
2019-01-10T09:30:58.948Z,976.72
2019-01-10T09:31:58.932Z,976.71
2019-01-10T09:32:58.916Z,976.74
2019-01-10T09:33:58.896Z,976.78
2019-01-10T09:34:58.881Z,976.77
2019-01-10T09:35:58.865Z,976.78
2019-01-10T09:36:58.844Z,976.81
2019-01-10T09:37:58.826Z,976.81
2019-01-10T09:38:58.811Z,976.80
2019-01-10T09:39:58.793Z,976.81
2019-01-10T09:40:58.778Z,976.84
2019-01-10T09:41:58.762Z,976.83
2019-01-10T09:42:58.742Z,976.87
2019-01-10T09:43:58.725Z,976.86
2019-01-10T09:44:58.707Z,976.87
2019-01-10T09:45:58.692Z,976.90
2019-01-10T09:46:58.676Z,976.91
2019-01-10T09:47:58.656Z,976.88
2019-01-10T09:48:58.638Z,976.91
2019-01-10T09:49:58.621Z,976.91
2019-01-10T09:50:58.605Z,976.89
2019-01-10T09:51:58.589Z,976.92
2019-01-10T09:52:58.570Z,976.88
2019-01-10T09:53:58.555Z,976.84
2019-01-10T09:54:58.537Z,976.85
2019-01-10T09:55:58.521Z,976.83
2019-01-10T09:56:58.503Z,976.87
2019-01-10T09:57:58.488Z,976.86
2019-01-10T09:58:58.470Z,976.87
2019-01-10T09:59:58.454Z,976.87
2019-01-10T10:00:58.436Z,976.87
2019-01-10T10:01:58.419Z,976.92
2019-01-10T10:02:58.406Z,976.90
2019-01-10T10:03:58.388Z,976.88
2019-01-10T10:04:58.370Z,976.93
2019-01-10T10:06:07.321Z,976.87
2019-01-10T10:06:58.338Z,976.90
2019-01-10T10:07:58.320Z,976.89
2019-01-10T10:08:58.303Z,976.91
2019-01-10T10:09:58.284Z,976.94
2019-01-10T10:10:58.272Z,976.93
2019-01-10T10:11:58.256Z,976.87
2019-01-10T10:12:58.237Z,976.88
2019-01-10T10:13:58.220Z,976.89
2019-01-10T10:14:58.203Z,976.88
2019-01-10T10:15:58.187Z,976.91
2019-01-10T10:16:58.168Z,976.92
2019-01-10T10:17:58.152Z,976.91
2019-01-10T10:18:58.136Z,976.89
2019-01-10T10:19:58.121Z,976.91
2019-01-10T10:20:58.105Z,976.89
2019-01-10T10:21:58.086Z,976.90
2019-01-10T10:22:58.071Z,976.90
2019-01-10T10:23:58.054Z,976.92
2019-01-10T10:24:58.037Z,976.91
2019-01-10T10:25:58.019Z,976.91
2019-01-10T10:26:58.005Z,976.90
2019-01-10T10:27:57.988Z,976.89
2019-01-10T10:28:57.969Z,976.89
2019-01-10T10:29:57.955Z,976.87
2019-01-10T10:30:57.944Z,976.87
2019-01-10T10:31:57.926Z,976.89
2019-01-10T10:32:57.908Z,976.91
2019-01-10T10:33:57.890Z,976.88
2019-01-10T10:34:57.872Z,976.89
2019-01-10T10:35:57.856Z,976.88
2019-01-10T10:36:57.839Z,976.88
2019-01-10T10:37:57.824Z,976.89
2019-01-10T10:38:57.808Z,976.88
2019-01-10T10:39:57.793Z,976.89
2019-01-10T10:40:57.774Z,976.89
2019-01-10T10:41:57.761Z,976.88
2019-01-10T10:42:57.743Z,976.89
2019-01-10T10:43:57.727Z,976.88
2019-01-10T10:44:57.710Z,976.83
2019-01-10T10:46:01.647Z,976.85
2019-01-10T10:46:57.677Z,976.86
2019-01-10T10:47:57.662Z,976.85
2019-01-10T10:48:57.645Z,976.87
2019-01-10T10:49:57.632Z,976.83
2019-01-10T10:50:57.611Z,976.88
2019-01-10T10:51:57.598Z,976.85
2019-01-10T10:52:57.580Z,976.88
2019-01-10T10:53:57.565Z,976.87
2019-01-10T10:54:57.547Z,976.85
2019-01-10T10:55:57.532Z,976.85
2019-01-10T10:56:57.514Z,976.84
2019-01-10T10:57:57.500Z,976.85
2019-01-10T10:58:57.488Z,976.86
2019-01-10T10:59:57.466Z,976.87
2019-01-10T11:00:57.451Z,976.85
2019-01-10T11:01:57.432Z,976.86
2019-01-10T11:02:57.418Z,976.82
2019-01-10T11:03:57.404Z,976.88
2019-01-10T11:04:57.386Z,976.83
2019-01-10T11:05:57.368Z,976.86
2019-01-10T11:06:57.352Z,976.83
2019-01-10T11:07:57.338Z,976.86
2019-01-10T11:08:57.319Z,976.83
2019-01-10T11:09:57.303Z,976.82
2019-01-10T11:10:57.288Z,976.83
2019-01-10T11:11:57.270Z,976.82
2019-01-10T11:12:57.254Z,976.84
2019-01-10T11:13:57.440Z,976.80
2019-01-10T11:14:57.220Z,976.83
2019-01-10T11:15:57.207Z,976.81
2019-01-10T11:16:57.191Z,976.78
2019-01-10T11:17:57.173Z,976.79
2019-01-10T11:18:57.158Z,976.79
2019-01-10T11:19:57.141Z,976.76
2019-01-10T11:20:57.123Z,976.77
2019-01-10T11:21:57.113Z,976.77
2019-01-10T11:23:57.076Z,976.79
2019-01-10T11:24:57.058Z,976.73
2019-01-10T11:25:57.043Z,976.74
2019-01-10T11:26:57.027Z,976.75
2019-01-10T11:27:57.011Z,976.76
2019-01-10T11:28:56.996Z,976.74
2019-01-10T11:29:56.978Z,976.75
2019-01-10T11:30:56.962Z,976.73
2019-01-10T11:31:56.947Z,976.78
2019-01-10T11:32:56.930Z,976.75
2019-01-10T11:33:56.914Z,976.74
2019-01-10T11:34:56.899Z,976.76
2019-01-10T11:35:56.883Z,976.76
2019-01-10T11:36:56.866Z,976.79
2019-01-10T11:37:56.851Z,976.78
2019-01-10T11:38:56.838Z,976.80
2019-01-10T11:39:56.818Z,976.78
2019-01-10T11:40:56.803Z,976.79
2019-01-10T11:41:56.788Z,976.78
2019-01-10T11:42:56.771Z,976.78
2019-01-10T11:43:56.755Z,976.80
2019-01-10T11:44:56.739Z,976.78
2019-01-10T11:45:56.724Z,976.78
2019-01-10T11:46:56.707Z,976.78
2019-01-10T11:47:56.693Z,976.77
2019-01-10T11:48:56.677Z,976.78
2019-01-10T11:49:56.660Z,976.74
2019-01-10T11:50:56.645Z,976.76
2019-01-10T11:51:56.631Z,976.76
2019-01-10T11:52:56.612Z,976.76
2019-01-10T11:53:56.598Z,976.77
2019-01-10T11:54:56.581Z,976.78
2019-01-10T11:55:56.566Z,976.77
2019-01-10T11:56:56.548Z,976.74
2019-01-10T11:57:56.532Z,976.74
2019-01-10T11:58:56.517Z,976.74
2019-01-10T11:59:56.501Z,976.73
2019-01-10T12:00:56.491Z,976.71
2019-01-10T12:01:56.469Z,976.71
2019-01-10T12:02:56.454Z,976.72
2019-01-10T12:03:56.437Z,976.74
2019-01-10T12:04:56.421Z,976.76
2019-01-10T12:05:56.407Z,976.77
2019-01-10T12:06:56.390Z,976.76
2019-01-10T12:07:56.374Z,976.74
2019-01-10T12:08:56.354Z,976.75
2019-01-10T12:09:56.340Z,976.71
2019-01-10T12:10:56.325Z,976.70
2019-01-10T12:11:56.307Z,976.77
2019-01-10T12:12:56.290Z,976.69
2019-01-10T12:13:56.274Z,976.66
2019-01-10T12:14:56.307Z,976.66
2019-01-10T12:15:56.280Z,976.69
2019-01-10T12:16:56.228Z,976.69
2019-01-10T12:17:56.211Z,976.68
2019-01-10T12:18:59.439Z,976.68
2019-01-10T12:19:56.177Z,976.62
2019-01-10T12:20:56.160Z,976.61
2019-01-10T12:21:56.146Z,976.65
2019-01-10T12:22:56.130Z,976.65
2019-01-10T12:23:56.112Z,976.62
2019-01-10T12:24:56.094Z,976.64
2019-01-10T12:25:56.078Z,976.65
2019-01-10T12:26:56.063Z,976.61
2019-01-10T12:27:56.046Z,976.59
2019-01-10T12:28:56.027Z,976.61